Terminal Aerodrome Forecast
Issued by NWS Twin Cities, MN

Home | Current Version | Previous Version | Text Only | Print | Product List | Glossary Off
Versions: 1 2 3 4 5 6 7 8 9 10 11 12 13 14 15 16 17 18

156
FTUS43 KMPX 192339
TAFEAU
TAF
KEAU 192339Z 2000/2024 13008KT P6SM SCT250
     FM200300 13006KT P6SM OVC200 WS020/20040KT
     FM201000 13008KT P6SM SCT040 OVC080
     FM201400 15010KT P6SM OVC040
     FM201700 16010KT 4SM SHRA BR VCTS OVC020CB
     FM202100 18010KT 3SM -RA BR OVC015=

USA.gov is the U.S. government's official web portal to all federal, state and local government web resources and services.